Terminal Aerodrome Forecast
Issued by NWS

Home | Current Version | Previous Version | Text Only | Print | Product List | Glossary Off
Versions: 1 2 3 4 5 6 7 8 9 10 11 12 13 14 15 16 17 18 19 20 21 22 23

000
FTUS43 KPAH 190600 AAB
TAFCGI
TAF AMD
KCGI 190620Z 1906/2006 VRB03KT 5SM BR SKC
      TEMPO 1906/1909 1SM BR
     FM190900 00000KT 2SM BR SKC
      TEMPO 1909/1913 1/2SM FG SCT002
     FM191400 11005KT P6SM SCT045=

USA.gov is the U.S. government's official web portal to all federal, state and local government web resources and services.